createdAt,value
2018-02-02T00:01:07.705Z,0
2018-02-02T00:02:16.676Z,0
2018-02-02T00:03:25.647Z,0
2018-02-02T00:04:34.440Z,0
2018-02-02T00:05:43.502Z,0
2018-02-02T00:06:52.547Z,0
2018-02-02T00:08:01.517Z,0
2018-02-02T00:09:10.217Z,0
2018-02-02T00:10:19.455Z,0
2018-02-02T00:11:28.425Z,0
2018-02-02T00:12:37.136Z,0
2018-02-02T00:13:46.101Z,0
2018-02-02T00:14:55.076Z,0
2018-02-02T00:16:04.316Z,0
2018-02-02T00:17:13.020Z,0
2018-02-02T00:18:21.722Z,0
2018-02-02T00:19:30.688Z,0
2018-02-02T00:20:39.932Z,0
2018-02-02T00:21:48.628Z,0
2018-02-02T00:22:57.865Z,0
2018-02-02T00:24:06.567Z,0
2018-02-02T00:25:15.271Z,0
2018-02-02T00:26:23.970Z,0
2018-02-02T00:27:32.948Z,0
2018-02-02T00:28:42.719Z,0
2018-02-02T00:29:51.692Z,0
2018-02-02T00:31:00.666Z,0
2018-02-02T00:32:09.907Z,0
2018-02-02T00:33:19.145Z,0
2018-02-02T00:34:28.647Z,0
2018-02-02T00:35:37.620Z,0
2018-02-02T00:36:46.856Z,0
2018-02-02T00:37:55.830Z,0
2018-02-02T00:39:04.801Z,0
2018-02-02T00:40:13.771Z,0
2018-02-02T00:41:23.012Z,0
2018-02-02T00:42:31.982Z,0
2018-02-02T00:43:40.954Z,0
2018-02-02T00:44:49.928Z,0
2018-02-02T00:45:59.442Z,0
2018-02-02T00:47:08.419Z,0
2018-02-02T00:48:17.658Z,0
2018-02-02T00:49:26.362Z,0
2018-02-02T00:50:35.337Z,0
2018-02-02T00:51:44.045Z,0
2018-02-02T00:52:53.282Z,0
2018-02-02T00:54:02.521Z,0
2018-02-02T00:55:11.491Z,0
2018-02-02T00:56:20.194Z,0
2018-02-02T00:57:28.895Z,0
2018-02-02T00:58:38.138Z,0
2018-02-02T00:59:47.380Z,0
2018-02-02T01:00:56.347Z,0
2018-02-02T01:02:05.642Z,0
2018-02-02T01:03:14.614Z,0
2018-02-02T01:04:23.317Z,0
2018-02-02T01:05:32.290Z,0
2018-02-02T01:06:41.262Z,0
2018-02-02T01:07:50.230Z,0
2018-02-02T01:08:58.935Z,0
2018-02-02T01:10:07.918Z,0
2018-02-02T01:11:16.889Z,0
2018-02-02T01:12:25.596Z,0
2018-02-02T01:13:34.567Z,0
2018-02-02T01:14:43.807Z,0
2018-02-02T01:15:53.580Z,0
2018-02-02T01:17:02.549Z,0
2018-02-02T01:18:11.524Z,0
2018-02-02T01:19:20.492Z,0
2018-02-02T01:20:29.193Z,0
2018-02-02T01:21:38.428Z,0
2018-02-02T01:22:47.407Z,0
2018-02-02T01:23:56.112Z,0
2018-02-02T01:25:05.351Z,0
2018-02-02T01:26:14.056Z,0
2018-02-02T01:27:23.024Z,0
2018-02-02T01:28:31.993Z,0
2018-02-02T01:29:40.967Z,0
2018-02-02T01:30:49.671Z,0
2018-02-02T01:31:58.375Z,0
2018-02-02T01:33:07.614Z,0
2018-02-02T01:34:16.316Z,0
2018-02-02T01:35:25.295Z,0
2018-02-02T01:36:33.991Z,0
2018-02-02T01:37:43.496Z,0
2018-02-02T01:38:52.471Z,0
2018-02-02T01:40:01.176Z,0
2018-02-02T01:41:09.881Z,0
2018-02-02T01:42:18.853Z,0
2018-02-02T01:43:27.557Z,0
2018-02-02T01:44:36.537Z,0
2018-02-02T01:45:45.510Z,0
2018-02-02T01:46:54.480Z,0
2018-02-02T01:48:03.982Z,0
2018-02-02T01:49:12.687Z,0
2018-02-02T01:50:21.665Z,0
2018-02-02T01:51:30.367Z,0
2018-02-02T01:52:39.071Z,0
2018-02-02T01:53:48.049Z,0
2018-02-02T01:54:57.021Z,0
2018-02-02T01:56:06.259Z,0
2018-02-02T01:57:14.965Z,0
2018-02-02T01:58:24.199Z,0
2018-02-02T01:59:33.434Z,0
2018-02-02T02:00:42.141Z,0
2018-02-02T02:01:50.842Z,0
2018-02-02T02:03:00.081Z,0
2018-02-02T02:04:09.056Z,0
2018-02-02T02:05:18.022Z,0
2018-02-02T02:06:26.992Z,0
2018-02-02T02:07:35.962Z,0
2018-02-02T02:08:45.461Z,0
2018-02-02T02:09:54.699Z,0
2018-02-02T02:11:03.948Z,0
2018-02-02T02:12:12.650Z,0
2018-02-02T02:13:21.358Z,0
2018-02-02T02:14:30.333Z,0
2018-02-02T02:15:39.302Z,0
2018-02-02T02:16:48.544Z,0
2018-02-02T02:17:57.781Z,0
2018-02-02T02:19:06.753Z,0
2018-02-02T02:20:15.726Z,0
2018-02-02T02:21:24.694Z,0
2018-02-02T02:22:33.402Z,0
2018-02-02T02:23:42.373Z,0
2018-02-02T02:24:51.877Z,0
2018-02-02T02:26:00.848Z,0
2018-02-02T02:27:09.555Z,0
2018-02-02T02:28:18.525Z,0
2018-02-02T02:29:27.498Z,0
2018-02-02T02:30:36.539Z,0
2018-02-02T02:31:45.514Z,0
2018-02-02T02:32:54.485Z,0
2018-02-02T02:34:03.456Z,0
2018-02-02T02:35:12.160Z,0
2018-02-02T02:36:21.670Z,0
2018-02-02T02:37:30.639Z,0
2018-02-02T02:38:39.616Z,0
2018-02-02T02:39:48.856Z,0
2018-02-02T02:40:57.564Z,0
2018-02-02T02:42:06.803Z,0
2018-02-02T02:43:15.777Z,0
2018-02-02T02:44:24.750Z,0
2018-02-02T02:45:33.991Z,0
2018-02-02T02:46:42.693Z,0
2018-02-02T02:47:51.400Z,0
2018-02-02T02:49:00.103Z,0
2018-02-02T02:50:09.072Z,0
2018-02-02T02:51:18.311Z,0
2018-02-02T02:52:27.551Z,0
2018-02-02T02:53:36.526Z,0
2018-02-02T02:54:46.034Z,0
2018-02-02T02:55:55.277Z,0
2018-02-02T02:57:04.520Z,0
2018-02-02T02:58:13.761Z,0
2018-02-02T02:59:23.008Z,0
2018-02-02T03:00:31.978Z,0
2018-02-02T03:01:40.947Z,0
2018-02-02T03:02:49.921Z,0
2018-02-02T03:03:59.156Z,0
2018-02-02T03:05:08.391Z,0
2018-02-02T03:06:17.616Z,0
2018-02-02T03:07:26.584Z,0
2018-02-02T03:08:35.543Z,0
2018-02-02T03:09:44.235Z,0
2018-02-02T03:10:53.466Z,0
2018-02-02T03:12:02.689Z,0
2018-02-02T03:13:11.910Z,0
2018-02-02T03:14:20.871Z,0
2018-02-02T03:15:29.828Z,0
2018-02-02T03:16:38.784Z,0
2018-02-02T03:17:47.477Z,0
2018-02-02T03:18:56.702Z,0
2018-02-02T03:20:05.933Z,0
2018-02-02T03:21:14.892Z,0
2018-02-02T03:22:23.860Z,0
2018-02-02T03:23:33.085Z,0
2018-02-02T03:24:42.044Z,0
2018-02-02T03:25:50.735Z,0
2018-02-02T03:26:59.693Z,0
2018-02-02T03:28:08.658Z,0
2018-02-02T03:29:17.622Z,0
2018-02-02T03:30:26.847Z,0
2018-02-02T03:31:36.346Z,0
2018-02-02T03:32:45.839Z,0
2018-02-02T03:33:54.797Z,0
2018-02-02T03:35:03.759Z,0
2018-02-02T03:36:12.447Z,0
2018-02-02T03:37:21.405Z,0
2018-02-02T03:38:30.361Z,0
2018-02-02T03:39:39.057Z,0
2018-02-02T03:40:47.748Z,0
2018-02-02T03:41:56.708Z,0
2018-02-02T03:43:05.399Z,0
2018-02-02T03:44:15.163Z,0
2018-02-02T03:45:24.399Z,0
2018-02-02T03:46:33.354Z,0
2018-02-02T03:47:42.048Z,0
2018-02-02T03:48:50.740Z,0
2018-02-02T03:49:59.695Z,0
2018-02-02T03:51:08.388Z,0
2018-02-02T03:52:17.613Z,0
2018-02-02T03:53:26.573Z,0
2018-02-02T03:54:35.529Z,0
2018-02-02T03:55:45.019Z,0
2018-02-02T03:56:53.985Z,0
2018-02-02T03:58:02.677Z,0
2018-02-02T03:59:11.640Z,0
2018-02-02T04:00:20.600Z,0
2018-02-02T04:01:29.291Z,0
2018-02-02T04:02:37.985Z,0
2018-02-02T04:03:47.479Z,0
2018-02-02T04:04:56.172Z,0
2018-02-02T04:06:05.134Z,0
2018-02-02T04:07:14.094Z,0
2018-02-02T04:08:22.783Z,0
2018-02-02T04:09:31.742Z,0
2018-02-02T04:10:40.961Z,0
2018-02-02T04:11:50.453Z,0
2018-02-02T04:12:59.414Z,0
2018-02-02T04:14:08.640Z,0
2018-02-02T04:15:17.602Z,0
2018-02-02T04:16:26.823Z,0
2018-02-02T04:17:35.777Z,0
2018-02-02T04:18:44.473Z,0
2018-02-02T04:19:53.964Z,0
2018-02-02T04:21:03.196Z,0
2018-02-02T04:22:12.418Z,0
2018-02-02T04:23:21.114Z,0
2018-02-02T04:24:30.073Z,0
2018-02-02T04:25:39.610Z,0
2018-02-02T04:26:48.566Z,0
2018-02-02T04:27:57.526Z,0
2018-02-02T04:29:06.486Z,0
2018-02-02T04:30:15.448Z,0
2018-02-02T04:31:24.143Z,0
2018-02-02T04:32:33.105Z,0
2018-02-02T04:33:42.065Z,0
2018-02-02T04:34:51.033Z,0
2018-02-02T04:36:00.264Z,0
2018-02-02T04:37:09.220Z,0
2018-02-02T04:38:17.916Z,0
2018-02-02T04:39:27.143Z,0
2018-02-02T04:40:36.101Z,0
2018-02-02T04:41:45.064Z,0
2018-02-02T04:42:53.759Z,0
2018-02-02T04:44:02.453Z,0
2018-02-02T04:45:11.678Z,0
2018-02-02T04:46:20.367Z,0
2018-02-02T04:47:29.328Z,0
2018-02-02T04:48:38.025Z,0
2018-02-02T04:49:46.989Z,0
2018-02-02T04:50:56.483Z,0
2018-02-02T04:52:05.176Z,0
2018-02-02T04:53:14.405Z,0
2018-02-02T04:54:23.098Z,0
2018-02-02T04:55:32.053Z,0
2018-02-02T04:56:41.014Z,0
2018-02-02T04:57:50.241Z,0
2018-02-02T04:58:59.472Z,0
2018-02-02T05:00:08.166Z,0
2018-02-02T05:01:17.390Z,0
2018-02-02T05:02:26.085Z,0
2018-02-02T05:03:35.305Z,0
2018-02-02T05:04:44.264Z,0
2018-02-02T05:05:52.957Z,0
2018-02-02T05:07:01.652Z,0
2018-02-02T05:08:10.615Z,0
2018-02-02T05:09:19.309Z,0
2018-02-02T05:10:28.271Z,0
2018-02-02T05:11:37.232Z,0
2018-02-02T05:12:46.191Z,0
2018-02-02T05:13:55.153Z,0
2018-02-02T05:15:04.114Z,0
2018-02-02T05:16:13.076Z,0
2018-02-02T05:17:21.768Z,0
2018-02-02T05:18:30.463Z,0
2018-02-02T05:19:39.155Z,0
2018-02-02T05:20:48.120Z,0
2018-02-02T05:21:57.074Z,0
2018-02-02T05:23:06.303Z,0
2018-02-02T05:24:15.527Z,0
2018-02-02T05:25:25.287Z,0
2018-02-02T05:26:34.252Z,0
2018-02-02T05:27:43.210Z,0
2018-02-02T05:28:51.899Z,0
2018-02-02T05:30:00.858Z,0
2018-02-02T05:31:10.130Z,0
2018-02-02T05:32:19.615Z,0
2018-02-02T05:33:28.572Z,0
2018-02-02T05:34:37.794Z,0
2018-02-02T05:35:46.490Z,0
2018-02-02T05:36:55.457Z,0
2018-02-02T05:38:04.152Z,0
2018-02-02T05:39:13.109Z,0
2018-02-02T05:40:22.075Z,0
2018-02-02T05:41:31.304Z,0
2018-02-02T05:42:40.260Z,0
2018-02-02T05:43:48.953Z,0
2018-02-02T05:44:58.177Z,0
2018-02-02T05:46:06.870Z,0
2018-02-02T05:47:15.827Z,0
2018-02-02T05:48:24.518Z,0
2018-02-02T05:49:33.212Z,0
2018-02-02T05:50:42.976Z,0
2018-02-02T05:51:51.939Z,0
2018-02-02T05:53:00.907Z,0
2018-02-02T05:54:09.866Z,0
2018-02-02T05:55:19.355Z,0
2018-02-02T05:56:28.317Z,0
2018-02-02T05:57:37.327Z,0
2018-02-02T05:58:46.825Z,0
2018-02-02T05:59:55.783Z,0
2018-02-02T06:01:05.051Z,0
2018-02-02T06:02:14.008Z,0
2018-02-02T06:03:23.235Z,0
2018-02-02T06:04:32.199Z,0
2018-02-02T06:05:40.892Z,0
2018-02-02T06:06:50.125Z,0
2018-02-02T06:07:58.818Z,0
2018-02-02T06:09:07.783Z,0
2018-02-02T06:10:16.476Z,0
2018-02-02T06:11:25.437Z,0
2018-02-02T06:12:34.400Z,0
2018-02-02T06:13:43.625Z,0
2018-02-02T06:14:53.121Z,0
2018-02-02T06:16:02.085Z,0
2018-02-02T06:17:10.775Z,0
2018-02-02T06:18:19.731Z,0
2018-02-02T06:19:28.696Z,0
2018-02-02T06:20:37.658Z,0
2018-02-02T06:21:46.617Z,0
2018-02-02T06:22:55.841Z,0
2018-02-02T06:24:04.806Z,0
2018-02-02T06:25:13.762Z,0
2018-02-02T06:26:23.003Z,0
2018-02-02T06:27:31.700Z,0
2018-02-02T06:28:41.190Z,0
2018-02-02T06:29:50.947Z,0
2018-02-02T06:31:00.439Z,0
2018-02-02T06:32:09.937Z,0
2018-02-02T06:33:19.166Z,0
2018-02-02T06:34:28.120Z,0
2018-02-02T06:35:37.077Z,0
2018-02-02T06:36:45.767Z,0
2018-02-02T06:37:54.722Z,0
2018-02-02T06:39:04.212Z,0
2018-02-02T06:40:13.495Z,0
2018-02-02T06:41:22.724Z,0
2018-02-02T06:42:31.414Z,0
2018-02-02T06:43:40.377Z,0
2018-02-02T06:44:49.867Z,0
2018-02-02T06:45:59.096Z,0
2018-02-02T06:47:08.055Z,0
2018-02-02T06:48:17.279Z,0
2018-02-02T06:49:26.239Z,0
2018-02-02T06:50:35.469Z,0
2018-02-02T06:51:44.157Z,0
2018-02-02T06:52:53.386Z,0
2018-02-02T06:54:02.612Z,0
2018-02-02T06:55:11.569Z,0
2018-02-02T06:56:20.807Z,0
2018-02-02T06:57:30.036Z,0
2018-02-02T06:58:38.998Z,0
2018-02-02T06:59:47.956Z,0
2018-02-02T07:00:57.178Z,0
2018-02-02T07:02:06.136Z,0
2018-02-02T07:03:14.830Z,0
2018-02-02T07:04:24.589Z,0
2018-02-02T07:05:33.548Z,0
2018-02-02T07:06:42.246Z,0
2018-02-02T07:07:50.940Z,0
2018-02-02T07:09:00.168Z,0
2018-02-02T07:10:09.927Z,0
2018-02-02T07:11:19.216Z,0
2018-02-02T07:12:28.170Z,0
2018-02-02T07:13:37.398Z,0
2018-02-02T07:14:46.358Z,0
2018-02-02T07:15:55.584Z,0
2018-02-02T07:17:04.547Z,0
2018-02-02T07:18:13.507Z,0
2018-02-02T07:19:22.467Z,0
2018-02-02T07:20:31.428Z,0
2018-02-02T07:21:40.390Z,0
2018-02-02T07:22:49.347Z,0
2018-02-02T07:23:58.305Z,0
2018-02-02T07:25:06.998Z,0
2018-02-02T07:26:15.691Z,0
2018-02-02T07:27:24.387Z,0
2018-02-02T07:28:33.347Z,0
2018-02-02T07:29:42.570Z,0
2018-02-02T07:30:51.800Z,0
2018-02-02T07:32:01.032Z,0
2018-02-02T07:33:10.263Z,0
2018-02-02T07:34:20.017Z,0
2018-02-02T07:35:29.511Z,0
2018-02-02T07:36:38.204Z,0
2018-02-02T07:37:47.427Z,0
2018-02-02T07:38:56.651Z,0
2018-02-02T07:40:06.148Z,0
2018-02-02T07:41:15.182Z,0
2018-02-02T07:42:23.874Z,0
2018-02-02T07:43:32.833Z,4
2018-02-02T07:44:41.528Z,0
2018-02-02T07:45:50.490Z,0
2018-02-02T07:46:59.185Z,0
2018-02-02T07:48:08.423Z,0
2018-02-02T07:49:17.387Z,4
2018-02-02T07:50:26.299Z,4
2018-02-02T07:51:35.289Z,4
2018-02-02T07:52:43.986Z,4
2018-02-02T07:53:52.690Z,4
2018-02-02T07:55:01.380Z,4
2018-02-02T07:56:10.608Z,4
2018-02-02T07:57:20.019Z,4
2018-02-02T07:58:28.775Z,4
2018-02-02T07:59:37.467Z,4
2018-02-02T08:00:46.436Z,4
2018-02-02T08:01:55.394Z,4
2018-02-02T08:03:04.091Z,4
2018-02-02T08:04:13.056Z,4
2018-02-02T08:05:21.753Z,4
2018-02-02T08:06:30.449Z,4
2018-02-02T08:07:39.944Z,4
2018-02-02T08:08:49.438Z,4
2018-02-02T08:09:58.398Z,4
2018-02-02T08:11:07.091Z,4
2018-02-02T08:12:15.786Z,4
2018-02-02T08:13:24.751Z,0
2018-02-02T08:14:33.447Z,0
2018-02-02T08:15:42.407Z,0
2018-02-02T08:16:51.369Z,0
2018-02-02T08:18:00.870Z,4
2018-02-02T08:19:09.832Z,0
2018-02-02T08:20:18.535Z,4
2018-02-02T08:21:27.761Z,0
2018-02-02T08:22:36.722Z,4
2018-02-02T08:23:45.683Z,0
2018-02-02T08:24:55.178Z,4
2018-02-02T08:26:04.400Z,4
2018-02-02T08:27:13.361Z,4
2018-02-02T08:28:22.367Z,4
2018-02-02T08:29:31.327Z,0
2018-02-02T08:30:40.289Z,4
2018-02-02T08:31:48.986Z,4
2018-02-02T08:32:57.944Z,4
2018-02-02T08:34:07.440Z,4
2018-02-02T08:35:16.453Z,4
2018-02-02T08:36:25.415Z,4
2018-02-02T08:37:34.642Z,4
2018-02-02T08:38:43.604Z,4
2018-02-02T08:39:52.562Z,4
2018-02-02T08:41:01.524Z,0
2018-02-02T08:42:10.485Z,4
2018-02-02T08:43:19.447Z,0
2018-02-02T08:44:28.940Z,0
2018-02-02T08:45:37.899Z,0
2018-02-02T08:46:46.860Z,4
2018-02-02T08:47:56.131Z,4
2018-02-02T08:49:04.784Z,4
2018-02-02T08:50:13.478Z,0
2018-02-02T08:51:22.171Z,4
2018-02-02T08:52:31.132Z,4
2018-02-02T08:53:40.632Z,4
2018-02-02T08:54:49.594Z,4
2018-02-02T08:55:58.290Z,4
2018-02-02T08:57:07.521Z,4
2018-02-02T08:58:16.505Z,4
2018-02-02T08:59:25.727Z,8
2018-02-02T09:00:34.682Z,4
2018-02-02T09:01:43.955Z,4
2018-02-02T09:02:52.919Z,4
2018-02-02T09:04:01.610Z,0
2018-02-02T09:05:10.306Z,4
2018-02-02T09:06:19.266Z,4
2018-02-02T09:07:28.493Z,0
2018-02-02T09:08:37.452Z,4
2018-02-02T09:09:46.410Z,4
2018-02-02T09:10:55.895Z,4
2018-02-02T09:12:04.590Z,4
2018-02-02T09:13:13.549Z,4
2018-02-02T09:14:22.513Z,4
2018-02-02T09:15:31.741Z,4
2018-02-02T09:16:40.750Z,4
2018-02-02T09:17:50.251Z,4
2018-02-02T09:18:58.982Z,4
2018-02-02T09:20:08.173Z,0
2018-02-02T09:21:17.613Z,0
2018-02-02T09:22:27.862Z,4
2018-02-02T09:23:37.256Z,4
2018-02-02T09:24:46.582Z,0
2018-02-02T09:25:55.542Z,0
2018-02-02T09:27:04.769Z,4
2018-02-02T09:28:14.258Z,4
2018-02-02T09:29:23.493Z,4
2018-02-02T09:30:32.457Z,0
2018-02-02T09:31:41.676Z,0
2018-02-02T09:32:50.696Z,0
2018-02-02T09:33:59.926Z,0
2018-02-02T09:35:08.887Z,0
2018-02-02T09:36:17.849Z,0
2018-02-02T09:37:26.808Z,0
2018-02-02T09:38:36.036Z,0
2018-02-02T09:39:44.730Z,0
2018-02-02T09:40:53.689Z,0
2018-02-02T09:42:02.658Z,0
2018-02-02T09:43:11.623Z,0
2018-02-02T09:44:20.317Z,0
2018-02-02T09:45:29.015Z,0
2018-02-02T09:46:38.240Z,4
2018-02-02T09:47:47.205Z,0
2018-02-02T09:48:55.907Z,4
2018-02-02T09:50:04.597Z,4
2018-02-02T09:51:13.558Z,8
2018-02-02T09:52:22.522Z,4
2018-02-02T09:53:31.212Z,4
2018-02-02T09:54:40.175Z,8
2018-02-02T09:55:49.144Z,4
2018-02-02T09:56:58.105Z,8
2018-02-02T09:58:07.117Z,8
2018-02-02T09:59:16.032Z,8
2018-02-02T10:00:24.991Z,8
2018-02-02T10:01:34.216Z,8
2018-02-02T10:02:43.447Z,12
2018-02-02T10:03:52.142Z,8
2018-02-02T10:05:00.839Z,8
2018-02-02T10:06:10.067Z,8
2018-02-02T10:07:18.761Z,12
2018-02-02T10:08:27.453Z,12
2018-02-02T10:09:36.689Z,12
2018-02-02T10:10:46.182Z,12
2018-02-02T10:11:55.148Z,12
2018-02-02T10:13:04.139Z,8
2018-02-02T10:14:12.834Z,8
2018-02-02T10:15:21.528Z,8
2018-02-02T10:16:30.758Z,8
2018-02-02T10:17:39.721Z,8
2018-02-02T10:18:48.999Z,8
2018-02-02T10:19:58.495Z,4
2018-02-02T10:21:07.726Z,4
2018-02-02T10:22:16.686Z,0
2018-02-02T10:23:25.411Z,4
2018-02-02T10:24:34.373Z,0
2018-02-02T10:25:43.337Z,0
2018-02-02T10:26:52.029Z,4
2018-02-02T10:28:01.260Z,4
2018-02-02T10:29:10.487Z,4
2018-02-02T10:30:19.446Z,4
2018-02-02T10:31:28.404Z,4
2018-02-02T10:32:37.099Z,8
2018-02-02T10:33:46.075Z,20
2018-02-02T10:34:54.768Z,52
2018-02-02T10:36:03.462Z,32
2018-02-02T10:37:12.731Z,8
2018-02-02T10:38:22.453Z,4
2018-02-02T10:39:31.678Z,8
2018-02-02T10:40:40.639Z,12
2018-02-02T10:41:49.868Z,36
2018-02-02T10:42:58.830Z,64
2018-02-02T10:44:08.067Z,64
2018-02-02T10:45:17.569Z,64
2018-02-02T10:46:26.595Z,64
2018-02-02T10:47:35.553Z,68
2018-02-02T10:48:44.247Z,72
2018-02-02T10:49:53.778Z,72
2018-02-02T10:51:02.502Z,84
2018-02-02T10:52:11.694Z,88
2018-02-02T10:53:20.389Z,76
2018-02-02T10:54:29.353Z,92
2018-02-02T10:55:38.854Z,64
2018-02-02T10:56:47.548Z,84
2018-02-02T10:57:56.511Z,32
2018-02-02T10:59:05.208Z,24
2018-02-02T11:00:14.433Z,92
2018-02-02T11:01:23.660Z,68
2018-02-02T11:02:33.424Z,12
2018-02-02T11:03:42.386Z,92
2018-02-02T11:04:51.350Z,20
2018-02-02T11:06:00.575Z,32
2018-02-02T11:07:10.068Z,20
2018-02-02T11:08:19.295Z,32
2018-02-02T11:09:28.255Z,92
2018-02-02T11:10:37.482Z,36
2018-02-02T11:11:46.444Z,80
2018-02-02T11:12:55.400Z,16
2018-02-02T11:14:04.356Z,8
2018-02-02T11:15:13.048Z,4
2018-02-02T11:16:22.269Z,8
2018-02-02T11:17:31.231Z,24
2018-02-02T11:18:40.189Z,108
2018-02-02T11:19:48.880Z,112
2018-02-02T11:20:57.839Z,104
2018-02-02T11:22:07.336Z,12
2018-02-02T11:23:16.033Z,16
2018-02-02T11:24:24.730Z,16
2018-02-02T11:25:33.956Z,56
2018-02-02T11:26:42.919Z,24
2018-02-02T11:27:51.881Z,84
2018-02-02T11:29:00.836Z,60
2018-02-02T11:30:10.058Z,28
2018-02-02T11:31:18.752Z,28
2018-02-02T11:32:27.980Z,16
2018-02-02T11:33:36.942Z,12
2018-02-02T11:34:45.902Z,8
2018-02-02T11:35:54.594Z,4
2018-02-02T11:37:04.096Z,4
2018-02-02T11:38:12.793Z,4
2018-02-02T11:39:22.018Z,4
2018-02-02T11:40:31.248Z,4
2018-02-02T11:41:39.943Z,4
2018-02-02T11:42:48.633Z,4
2018-02-02T11:43:57.593Z,4
2018-02-02T11:45:06.820Z,4
2018-02-02T11:46:15.522Z,8
2018-02-02T11:47:24.481Z,12
2018-02-02T11:48:33.713Z,16
2018-02-02T11:49:42.682Z,112
2018-02-02T11:50:51.907Z,132
2018-02-02T11:52:00.870Z,80
2018-02-02T11:53:09.886Z,12
2018-02-02T11:54:19.594Z,12
2018-02-02T11:55:29.080Z,8
2018-02-02T11:56:38.570Z,8
2018-02-02T11:57:47.534Z,8
2018-02-02T11:58:56.757Z,8
2018-02-02T12:00:05.716Z,16
2018-02-02T12:01:14.683Z,32
2018-02-02T12:02:23.643Z,72
2018-02-02T12:03:32.336Z,120
2018-02-02T12:04:41.030Z,44
2018-02-02T12:05:49.729Z,52
2018-02-02T12:06:58.689Z,132
2018-02-02T12:08:08.181Z,132
2018-02-02T12:09:17.412Z,140
2018-02-02T12:10:26.640Z,20
2018-02-02T12:11:36.135Z,144
2018-02-02T12:12:45.364Z,36
2018-02-02T12:13:54.325Z,68
2018-02-02T12:15:03.015Z,104
2018-02-02T12:16:11.711Z,36
2018-02-02T12:17:20.671Z,20
2018-02-02T12:18:29.625Z,12
2018-02-02T12:19:38.585Z,12
2018-02-02T12:20:47.548Z,80
2018-02-02T12:21:56.507Z,108
2018-02-02T12:23:05.468Z,116
2018-02-02T12:24:14.426Z,44
2018-02-02T12:25:23.391Z,120
2018-02-02T12:26:32.084Z,104
2018-02-02T12:27:41.311Z,12
2018-02-02T12:28:50.003Z,8
2018-02-02T12:29:59.231Z,4
2018-02-02T12:31:08.189Z,8
2018-02-02T12:32:17.146Z,8
2018-02-02T12:33:25.839Z,60
2018-02-02T12:34:34.798Z,16
2018-02-02T12:35:44.027Z,12
2018-02-02T12:36:52.987Z,16
2018-02-02T12:38:01.947Z,60
2018-02-02T12:39:10.909Z,68
2018-02-02T12:40:19.867Z,4
2018-02-02T12:41:28.827Z,4
2018-02-02T12:42:38.377Z,4
2018-02-02T12:43:47.339Z,4
2018-02-02T12:44:56.031Z,4
2018-02-02T12:46:05.347Z,4
2018-02-02T12:47:14.261Z,4
2018-02-02T12:48:23.222Z,8
2018-02-02T12:49:32.444Z,36
2018-02-02T12:50:41.669Z,32
2018-02-02T12:51:50.628Z,36
2018-02-02T12:53:00.978Z,84
2018-02-02T12:54:09.939Z,72
2018-02-02T12:55:18.638Z,16
2018-02-02T12:56:27.863Z,12
2018-02-02T12:57:37.094Z,8
2018-02-02T12:58:46.318Z,12
2018-02-02T12:59:55.562Z,8
2018-02-02T13:01:05.056Z,4
2018-02-02T13:02:14.016Z,4
2018-02-02T13:03:22.978Z,4
2018-02-02T13:04:31.676Z,4
2018-02-02T13:05:40.372Z,8
2018-02-02T13:06:49.068Z,4
2018-02-02T13:07:58.027Z,4
2018-02-02T13:09:07.258Z,0
2018-02-02T13:10:16.489Z,4
2018-02-02T13:11:25.713Z,0
2018-02-02T13:12:34.938Z,0
2018-02-02T13:13:44.431Z,4
2018-02-02T13:14:53.388Z,4
2018-02-02T13:16:02.082Z,4
2018-02-02T13:17:10.775Z,0
2018-02-02T13:18:20.001Z,0
2018-02-02T13:19:28.959Z,0
2018-02-02T13:20:37.916Z,0
2018-02-02T13:21:46.608Z,0
2018-02-02T13:22:55.585Z,0
2018-02-02T13:24:04.279Z,0
2018-02-02T13:25:13.507Z,0
2018-02-02T13:26:22.469Z,0
2018-02-02T13:27:31.967Z,0
2018-02-02T13:28:41.197Z,4
2018-02-02T13:29:50.427Z,4
2018-02-02T13:30:59.385Z,4
2018-02-02T13:32:08.081Z,4
2018-02-02T13:33:16.789Z,8
2018-02-02T13:34:25.801Z,8
2018-02-02T13:35:35.136Z,12
2018-02-02T13:36:44.128Z,12
2018-02-02T13:37:52.837Z,32
2018-02-02T13:39:02.083Z,36
2018-02-02T13:40:11.049Z,24
2018-02-02T13:41:20.029Z,8
2018-02-02T13:42:29.000Z,4
2018-02-02T13:43:37.760Z,0
2018-02-02T13:44:47.544Z,4
2018-02-02T13:45:56.267Z,4
2018-02-02T13:47:05.815Z,0
2018-02-02T13:48:15.046Z,0
2018-02-02T13:49:24.022Z,4
2018-02-02T13:50:33.526Z,4
2018-02-02T13:51:42.765Z,4
2018-02-02T13:52:51.728Z,4
2018-02-02T13:54:00.448Z,0
2018-02-02T13:55:09.416Z,0
2018-02-02T13:56:18.655Z,4
2018-02-02T13:57:27.356Z,4
2018-02-02T13:58:36.333Z,0
2018-02-02T13:59:45.307Z,0
2018-02-02T14:00:54.276Z,4
2018-02-02T14:02:02.988Z,4
2018-02-02T14:03:11.968Z,4
2018-02-02T14:04:21.475Z,0
2018-02-02T14:05:30.450Z,0
2018-02-02T14:06:39.155Z,0
2018-02-02T14:07:48.140Z,0
2018-02-02T14:08:57.362Z,0
2018-02-02T14:10:06.877Z,0
2018-02-02T14:11:16.103Z,0
2018-02-02T14:12:24.840Z,0
2018-02-02T14:13:33.804Z,0
2018-02-02T14:14:42.500Z,4
2018-02-02T14:15:51.726Z,0
2018-02-02T14:17:00.690Z,0
2018-02-02T14:18:09.918Z,0
2018-02-02T14:19:18.878Z,4
2018-02-02T14:20:27.570Z,0
2018-02-02T14:21:36.263Z,0
2018-02-02T14:22:45.489Z,0
2018-02-02T14:23:54.181Z,0
2018-02-02T14:25:02.872Z,0
2018-02-02T14:26:11.568Z,0
2018-02-02T14:27:20.790Z,4
2018-02-02T14:28:29.753Z,0
2018-02-02T14:29:38.448Z,0
2018-02-02T14:30:47.427Z,0
2018-02-02T14:31:56.651Z,0
2018-02-02T14:33:05.613Z,0
2018-02-02T14:34:14.579Z,0
2018-02-02T14:35:23.807Z,0
2018-02-02T14:36:32.503Z,0
2018-02-02T14:37:41.462Z,0
2018-02-02T14:38:50.691Z,0
2018-02-02T14:39:59.382Z,0
2018-02-02T14:41:08.076Z,0
2018-02-02T14:42:17.040Z,0
2018-02-02T14:43:25.738Z,4
2018-02-02T14:44:35.028Z,4
2018-02-02T14:45:43.985Z,4
2018-02-02T14:46:52.941Z,4
2018-02-02T14:48:01.900Z,4
2018-02-02T14:49:11.123Z,0
2018-02-02T14:50:19.853Z,0
2018-02-02T14:51:29.305Z,0
2018-02-02T14:52:38.002Z,0
2018-02-02T14:53:46.958Z,0
2018-02-02T14:54:55.655Z,0
2018-02-02T14:56:04.618Z,0
2018-02-02T14:57:14.108Z,4
2018-02-02T14:58:22.803Z,0
2018-02-02T14:59:31.770Z,0
2018-02-02T15:00:40.735Z,0
2018-02-02T15:01:50.252Z,0
2018-02-02T15:02:59.218Z,4
2018-02-02T15:04:08.208Z,4
2018-02-02T15:05:17.170Z,4
2018-02-02T15:06:25.860Z,4
2018-02-02T15:07:34.554Z,4
2018-02-02T15:08:43.529Z,4
2018-02-02T15:09:52.765Z,4
2018-02-02T15:11:01.727Z,4
2018-02-02T15:12:10.687Z,4
2018-02-02T15:13:19.644Z,0
2018-02-02T15:14:28.338Z,0
2018-02-02T15:15:37.560Z,0
2018-02-02T15:16:46.255Z,0
2018-02-02T15:17:55.595Z,0
2018-02-02T15:19:04.293Z,0
2018-02-02T15:20:12.990Z,0
2018-02-02T15:21:21.683Z,0
2018-02-02T15:22:31.443Z,0
2018-02-02T15:23:40.404Z,0
2018-02-02T15:24:49.097Z,0
2018-02-02T15:25:57.790Z,0
2018-02-02T15:27:06.754Z,0
2018-02-02T15:28:16.042Z,0
2018-02-02T15:29:24.739Z,0
2018-02-02T15:30:33.700Z,0
2018-02-02T15:31:42.928Z,0
2018-02-02T15:32:52.162Z,0
2018-02-02T15:34:01.656Z,0
2018-02-02T15:35:10.614Z,0
2018-02-02T15:36:19.308Z,0
2018-02-02T15:37:28.267Z,0
2018-02-02T15:38:37.762Z,0
2018-02-02T15:39:46.454Z,0
2018-02-02T15:40:55.412Z,0
2018-02-02T15:42:04.108Z,0
2018-02-02T15:43:13.340Z,0
2018-02-02T15:44:22.303Z,0
2018-02-02T15:45:30.998Z,0
2018-02-02T15:46:40.228Z,0
2018-02-02T15:47:48.921Z,0
2018-02-02T15:48:57.615Z,4
2018-02-02T15:50:06.841Z,4
2018-02-02T15:51:15.805Z,4
2018-02-02T15:52:24.494Z,8
2018-02-02T15:53:33.456Z,8
2018-02-02T15:54:42.418Z,8
2018-02-02T15:55:51.118Z,8
2018-02-02T15:57:00.077Z,4
2018-02-02T15:58:08.771Z,4
2018-02-02T15:59:18.261Z,8
2018-02-02T16:00:27.768Z,4
2018-02-02T16:01:36.996Z,4
2018-02-02T16:02:45.689Z,4
2018-02-02T16:03:54.383Z,4
2018-02-02T16:05:03.346Z,4
2018-02-02T16:06:12.841Z,4
2018-02-02T16:07:22.069Z,4
2018-02-02T16:08:31.028Z,8
2018-02-02T16:09:39.724Z,8
2018-02-02T16:10:48.681Z,4
2018-02-02T16:11:57.640Z,8
2018-02-02T16:13:07.136Z,4
2018-02-02T16:14:16.632Z,4
2018-02-02T16:15:25.326Z,4
2018-02-02T16:16:34.020Z,4
2018-02-02T16:17:43.255Z,4
2018-02-02T16:18:52.482Z,4
2018-02-02T16:20:01.443Z,4
2018-02-02T16:21:10.669Z,4
2018-02-02T16:22:19.626Z,4
2018-02-02T16:23:28.589Z,4
2018-02-02T16:24:37.281Z,4
2018-02-02T16:25:45.976Z,4
2018-02-02T16:26:54.935Z,4
2018-02-02T16:28:03.630Z,4
2018-02-02T16:29:12.862Z,4
2018-02-02T16:30:22.087Z,0
2018-02-02T16:31:30.782Z,0
2018-02-02T16:32:39.479Z,0
2018-02-02T16:33:48.174Z,4
2018-02-02T16:34:56.873Z,0
2018-02-02T16:36:05.823Z,0
2018-02-02T16:37:14.780Z,0
2018-02-02T16:38:23.477Z,0
2018-02-02T16:39:32.436Z,0
2018-02-02T16:40:41.661Z,0
2018-02-02T16:41:50.890Z,0
2018-02-02T16:42:59.891Z,0
2018-02-02T16:44:09.123Z,0
2018-02-02T16:45:18.351Z,0
2018-02-02T16:46:27.588Z,0
2018-02-02T16:47:36.371Z,0
2018-02-02T16:48:45.422Z,0
2018-02-02T16:49:54.407Z,0
2018-02-02T16:51:03.364Z,0
2018-02-02T16:52:12.331Z,0
2018-02-02T16:53:21.027Z,0
2018-02-02T16:54:30.524Z,0
2018-02-02T16:55:39.218Z,0